createdAt,value
2022-11-20T00:00:29.563Z,50.908054
2022-11-20T00:01:29.575Z,50.908077
2022-11-20T00:02:29.544Z,50.908092
2022-11-20T00:03:29.538Z,50.908134
2022-11-20T00:04:29.527Z,50.908016
2022-11-20T00:05:29.526Z,50.908016
2022-11-20T00:06:29.541Z,50.908039
2022-11-20T00:07:29.596Z,50.908146
2022-11-20T00:08:29.501Z,50.908142
2022-11-20T00:09:29.494Z,50.908188
2022-11-20T00:10:29.485Z,50.908222
2022-11-20T00:11:29.508Z,50.908218
2022-11-20T00:12:29.482Z,50.908192
2022-11-20T00:13:29.484Z,50.908184
2022-11-20T00:14:29.463Z,50.908195
2022-11-20T00:15:29.452Z,50.908207
2022-11-20T00:16:29.469Z,50.908146
2022-11-20T00:17:29.426Z,50.908161
2022-11-20T00:18:30.432Z,50.908176
2022-11-20T00:19:29.425Z,50.908142
2022-11-20T00:20:29.417Z,50.908142
2022-11-20T00:21:29.439Z,50.908138
2022-11-20T00:22:29.401Z,50.908157
2022-11-20T00:23:29.396Z,50.908142
2022-11-20T00:24:29.383Z,50.908150
2022-11-20T00:25:29.377Z,50.908157
2022-11-20T00:26:29.395Z,50.908169
2022-11-20T00:27:29.373Z,50.908154
2022-11-20T00:28:29.360Z,50.908161
2022-11-20T00:29:29.348Z,50.908138
2022-11-20T00:30:29.342Z,50.908134
2022-11-20T00:31:29.358Z,50.908154
2022-11-20T00:32:29.326Z,50.908142
2022-11-20T00:33:29.320Z,50.908134
2022-11-20T00:34:29.309Z,50.908142
2022-11-20T00:35:29.307Z,50.908161
2022-11-20T00:36:29.328Z,50.908131
2022-11-20T00:37:29.291Z,50.908119
2022-11-20T00:38:29.281Z,50.908134
2022-11-20T00:39:29.282Z,50.908142
2022-11-20T00:40:29.271Z,50.908188
2022-11-20T00:41:29.288Z,50.908176
2022-11-20T00:42:29.257Z,50.908169
2022-11-20T00:43:29.250Z,50.908131
2022-11-20T00:44:29.242Z,50.908085
2022-11-20T00:45:29.237Z,50.908127
2022-11-20T00:46:29.254Z,50.908131
2022-11-20T00:47:29.217Z,50.908112
2022-11-20T00:48:29.217Z,50.908073
2022-11-20T00:49:29.208Z,50.908169
2022-11-20T00:50:29.199Z,50.908154
2022-11-20T00:51:29.219Z,50.908138
2022-11-20T00:52:29.182Z,50.908142
2022-11-20T00:53:29.175Z,50.908169
2022-11-20T00:54:29.168Z,50.908169
2022-11-20T00:55:29.160Z,50.908161
2022-11-20T00:56:29.176Z,50.908115
2022-11-20T00:57:29.147Z,50.908066
2022-11-20T00:58:29.169Z,50.907974
2022-11-20T00:59:29.135Z,50.908039
2022-11-20T01:00:29.132Z,50.908092
2022-11-20T01:01:29.186Z,50.908104
2022-11-20T01:02:29.114Z,50.908051
2022-11-20T01:03:29.103Z,50.908089
2022-11-20T01:04:29.104Z,50.908092
2022-11-20T01:05:29.095Z,50.908096
2022-11-20T01:06:29.088Z,50.908077
2022-11-20T01:07:29.137Z,50.908119
2022-11-20T01:08:29.065Z,50.908127
2022-11-20T01:09:29.059Z,50.908119
2022-11-20T01:10:29.051Z,50.908066
2022-11-20T01:11:29.050Z,50.908081
2022-11-20T01:12:29.062Z,50.908092
2022-11-20T01:13:29.034Z,50.908100
2022-11-20T01:14:29.016Z,50.908131
2022-11-20T01:15:30.015Z,50.908123
2022-11-20T01:16:29.012Z,50.908070
2022-11-20T01:17:29.025Z,50.908089
2022-11-20T01:18:28.998Z,50.908092
2022-11-20T01:19:28.997Z,50.908062
2022-11-20T01:20:28.979Z,50.908039
2022-11-20T01:21:28.976Z,50.908073
2022-11-20T01:22:28.996Z,50.908039
2022-11-20T01:23:28.970Z,50.908047
2022-11-20T01:24:28.957Z,50.908066
2022-11-20T01:25:28.951Z,50.908119
2022-11-20T01:26:28.952Z,50.908104
2022-11-20T01:27:28.960Z,50.908150
2022-11-20T01:28:28.935Z,50.908146
2022-11-20T01:29:28.924Z,50.908123
2022-11-20T01:30:28.915Z,50.908119
2022-11-20T01:31:28.909Z,50.908096
2022-11-20T01:32:28.926Z,50.908104
2022-11-20T01:33:28.889Z,50.908119
2022-11-20T01:34:28.887Z,50.908112
2022-11-20T01:35:28.882Z,50.908123
2022-11-20T01:36:28.871Z,50.908081
2022-11-20T01:37:28.890Z,50.908089
2022-11-20T01:38:28.857Z,50.908108
2022-11-20T01:39:28.851Z,50.908115
2022-11-20T01:40:28.844Z,50.908115
2022-11-20T01:41:28.837Z,50.908131
2022-11-20T01:42:28.854Z,50.908131
2022-11-20T01:43:28.826Z,50.908134
2022-11-20T01:44:28.817Z,50.908119
2022-11-20T01:45:28.807Z,50.908123
2022-11-20T01:46:28.799Z,50.908112
2022-11-20T01:47:28.823Z,50.908112
2022-11-20T01:48:28.792Z,50.908127
2022-11-20T01:49:28.778Z,50.908131
2022-11-20T01:50:28.773Z,50.908073
2022-11-20T01:51:28.763Z,50.908119
2022-11-20T01:52:28.780Z,50.908131
2022-11-20T01:53:28.750Z,50.908146
2022-11-20T01:54:28.744Z,50.908096
2022-11-20T01:55:28.737Z,50.908131
2022-11-20T01:56:28.730Z,50.908154
2022-11-20T01:57:28.750Z,50.908188
2022-11-20T01:58:28.715Z,50.908161
2022-11-20T01:59:28.708Z,50.908039
2022-11-20T02:00:28.698Z,50.908077
2022-11-20T02:01:28.746Z,50.908096
2022-11-20T02:02:28.711Z,50.908115
2022-11-20T02:03:28.681Z,50.908108
2022-11-20T02:04:28.672Z,50.908115
2022-11-20T02:05:28.668Z,50.908134
2022-11-20T02:06:28.655Z,50.907883
2022-11-20T02:07:28.742Z,50.908005
2022-11-20T02:08:28.648Z,50.908073
2022-11-20T02:09:28.637Z,50.908089
2022-11-20T02:10:28.629Z,50.908119
2022-11-20T02:11:28.628Z,50.908051
2022-11-20T02:12:28.638Z,50.908051
2022-11-20T02:13:28.602Z,50.908081
2022-11-20T02:14:28.607Z,50.908134
2022-11-20T02:15:30.433Z,50.908047
2022-11-20T02:16:29.584Z,50.908054
2022-11-20T02:17:28.601Z,50.908127
2022-11-20T02:18:28.599Z,50.908073
2022-11-20T02:19:28.568Z,50.908104
2022-11-20T02:20:28.560Z,50.908089
2022-11-20T02:21:28.548Z,50.908104
2022-11-20T02:22:28.566Z,50.908096
2022-11-20T02:23:28.534Z,50.908066
2022-11-20T02:24:28.530Z,50.908108
2022-11-20T02:25:28.521Z,50.908119
2022-11-20T02:26:28.512Z,50.908127
2022-11-20T02:27:28.535Z,50.908131
2022-11-20T02:28:28.496Z,50.908092
2022-11-20T02:29:28.490Z,50.908051
2022-11-20T02:30:28.484Z,50.908100
2022-11-20T02:31:28.477Z,50.908092
2022-11-20T02:32:28.468Z,50.908085
2022-11-20T02:33:28.485Z,50.908165
2022-11-20T02:34:28.455Z,50.908157
2022-11-20T02:35:28.444Z,50.908119
2022-11-20T02:36:28.436Z,50.908108
2022-11-20T02:37:28.451Z,50.908112
2022-11-20T02:38:28.417Z,50.908142
2022-11-20T02:39:28.413Z,50.908092
2022-11-20T02:40:28.404Z,50.908108
2022-11-20T02:41:28.400Z,50.908119
2022-11-20T02:42:28.393Z,50.908104
2022-11-20T02:43:28.407Z,50.908127
2022-11-20T02:44:28.376Z,50.908119
2022-11-20T02:45:28.372Z,50.908127
2022-11-20T02:46:28.364Z,50.908184
2022-11-20T02:47:28.357Z,50.908146
2022-11-20T02:48:33.572Z,50.908127
2022-11-20T02:49:30.341Z,50.908123
2022-11-20T02:50:28.331Z,50.908085
2022-11-20T02:51:28.325Z,50.908100
2022-11-20T02:52:28.320Z,50.908131
2022-11-20T02:53:28.333Z,50.908115
2022-11-20T02:54:28.302Z,50.908127
2022-11-20T02:55:28.296Z,50.908112
2022-11-20T02:56:28.282Z,50.908207
2022-11-20T02:57:28.277Z,50.908195
2022-11-20T02:58:28.291Z,50.908085
2022-11-20T02:59:28.266Z,50.908092
2022-11-20T03:00:28.257Z,50.908058
2022-11-20T03:01:28.282Z,50.908104
2022-11-20T03:02:28.240Z,50.908123
2022-11-20T03:03:28.255Z,50.908123
2022-11-20T03:04:28.226Z,50.908089
2022-11-20T03:05:28.220Z,50.908115
2022-11-20T03:06:28.209Z,50.908123
2022-11-20T03:07:28.264Z,50.908165
2022-11-20T03:08:28.221Z,50.908108
2022-11-20T03:09:28.189Z,50.908062
2022-11-20T03:10:28.182Z,50.908123
2022-11-20T03:11:28.181Z,50.908062
2022-11-20T03:12:28.166Z,50.908241
2022-11-20T03:13:28.183Z,50.908234
2022-11-20T03:14:28.149Z,50.908249
2022-11-20T03:15:28.142Z,50.908150
2022-11-20T03:16:28.137Z,50.908169
2022-11-20T03:17:28.129Z,50.908115
2022-11-20T03:18:28.149Z,50.908112
2022-11-20T03:19:28.111Z,50.908073
2022-11-20T03:20:28.109Z,50.908409
2022-11-20T03:21:28.103Z,50.908363
2022-11-20T03:22:28.097Z,50.908176
2022-11-20T03:23:28.115Z,50.908138
2022-11-20T03:24:28.080Z,50.908112
2022-11-20T03:25:28.073Z,50.908115
2022-11-20T03:26:28.066Z,50.908157
2022-11-20T03:27:28.053Z,50.908192
2022-11-20T03:28:28.070Z,50.908142
2022-11-20T03:29:28.046Z,50.908100
2022-11-20T03:30:30.713Z,50.908127
2022-11-20T03:31:29.028Z,50.908119
2022-11-20T03:32:28.015Z,50.908150
2022-11-20T03:33:28.033Z,50.908119
2022-11-20T03:34:28.004Z,50.908123
2022-11-20T03:35:27.998Z,50.908104
2022-11-20T03:36:27.975Z,50.908131
2022-11-20T03:37:28.979Z,50.908142
2022-11-20T03:38:27.994Z,50.908134
2022-11-20T03:39:27.967Z,50.908081
2022-11-20T03:40:27.957Z,50.908089
2022-11-20T03:41:27.954Z,50.908092
2022-11-20T03:42:27.944Z,50.908131
2022-11-20T03:43:27.960Z,50.908134
2022-11-20T03:44:27.927Z,50.908115
2022-11-20T03:45:27.919Z,50.908081
2022-11-20T03:46:27.908Z,50.908089
2022-11-20T03:47:27.903Z,50.908081
2022-11-20T03:48:27.923Z,50.908112
2022-11-20T03:49:27.892Z,50.908062
2022-11-20T03:50:27.900Z,50.908066
2022-11-20T03:51:27.878Z,50.908138
2022-11-20T03:52:27.872Z,50.908142
2022-11-20T03:53:27.896Z,50.908104
2022-11-20T03:54:27.852Z,50.908127
2022-11-20T03:55:27.847Z,50.908089
2022-11-20T03:56:27.844Z,50.908138
2022-11-20T03:57:27.838Z,50.908131
2022-11-20T03:58:27.946Z,50.908157
2022-11-20T03:59:27.817Z,50.908150
2022-11-20T04:00:27.812Z,50.908207
2022-11-20T04:01:27.835Z,50.908237
2022-11-20T04:02:27.797Z,50.908287
2022-11-20T04:03:27.790Z,50.908161
2022-11-20T04:04:27.804Z,50.908154
2022-11-20T04:05:27.771Z,50.908142
2022-11-20T04:06:27.768Z,50.908138
2022-11-20T04:07:27.821Z,50.908089
2022-11-20T04:08:27.752Z,50.908192
2022-11-20T04:09:27.767Z,50.908176
2022-11-20T04:10:27.734Z,50.908134
2022-11-20T04:11:27.730Z,50.908150
2022-11-20T04:12:27.723Z,50.908070
2022-11-20T04:13:27.715Z,50.908131
2022-11-20T04:14:27.730Z,50.908165
2022-11-20T04:15:27.700Z,50.908218
2022-11-20T04:16:27.699Z,50.908154
2022-11-20T04:17:27.685Z,50.908169
2022-11-20T04:18:27.680Z,50.908138
2022-11-20T04:19:27.700Z,50.908104
2022-11-20T04:20:27.665Z,50.908100
2022-11-20T04:21:27.660Z,50.908176
2022-11-20T04:22:27.650Z,50.908081
2022-11-20T04:23:28.978Z,50.908226
2022-11-20T04:24:28.667Z,50.908482
2022-11-20T04:25:27.632Z,50.908218
2022-11-20T04:26:27.611Z,50.908066
2022-11-20T04:27:28.621Z,50.908012
2022-11-20T04:28:27.607Z,50.908081
2022-11-20T04:29:27.624Z,50.908131
2022-11-20T04:30:27.603Z,50.908192
2022-11-20T04:31:27.585Z,50.908131
2022-11-20T04:32:27.576Z,50.908131
2022-11-20T04:33:28.974Z,50.908161
2022-11-20T04:34:29.592Z,50.908173
2022-11-20T04:35:27.558Z,50.908150
2022-11-20T04:36:27.548Z,50.908150
2022-11-20T04:37:27.541Z,50.908150
2022-11-20T04:38:27.535Z,50.908142
2022-11-20T04:39:27.552Z,50.908066
2022-11-20T04:40:27.522Z,50.908226
2022-11-20T04:41:27.511Z,50.908134
2022-11-20T04:42:27.510Z,50.908203
2022-11-20T04:43:27.504Z,50.908150
2022-11-20T04:44:27.516Z,50.908150
2022-11-20T04:45:27.482Z,50.908195
2022-11-20T04:46:27.480Z,50.908150
2022-11-20T04:47:27.470Z,50.908276
2022-11-20T04:48:27.464Z,50.908054
2022-11-20T04:49:27.496Z,50.908073
2022-11-20T04:50:27.449Z,50.908073
2022-11-20T04:51:27.440Z,50.908146
2022-11-20T04:52:27.434Z,50.908154
2022-11-20T04:53:27.427Z,50.908192
2022-11-20T04:54:27.447Z,50.908081
2022-11-20T04:55:27.416Z,50.908089
2022-11-20T04:56:27.407Z,50.908031
2022-11-20T04:57:27.400Z,50.908131
2022-11-20T04:58:27.392Z,50.908104
2022-11-20T04:59:27.407Z,50.908031
2022-11-20T05:00:27.650Z,50.908001
2022-11-20T05:01:27.390Z,50.907967
2022-11-20T05:02:28.364Z,50.908085
2022-11-20T05:03:27.354Z,50.908131
2022-11-20T05:04:27.434Z,50.908161
2022-11-20T05:05:27.346Z,50.908100
2022-11-20T05:06:27.333Z,50.908127
2022-11-20T05:07:27.385Z,50.908096
2022-11-20T05:08:27.321Z,50.908047
2022-11-20T05:09:27.341Z,50.908176
2022-11-20T05:10:27.324Z,50.908184
2022-11-20T05:11:27.295Z,50.908051
2022-11-20T05:12:27.289Z,50.908012
2022-11-20T05:13:27.280Z,50.907986
2022-11-20T05:14:27.302Z,50.908127
2022-11-20T05:15:27.268Z,50.908123
2022-11-20T05:16:27.253Z,50.908154
2022-11-20T05:17:27.251Z,50.908207
2022-11-20T05:18:27.240Z,50.908222
2022-11-20T05:19:27.268Z,50.908211
2022-11-20T05:20:27.223Z,50.908287
2022-11-20T05:21:27.219Z,50.908192
2022-11-20T05:22:27.215Z,50.908146
2022-11-20T05:23:27.211Z,50.908058
2022-11-20T05:24:27.203Z,50.908123
2022-11-20T05:25:27.218Z,50.908119
2022-11-20T05:26:27.182Z,50.908077
2022-11-20T05:27:27.177Z,50.908043
2022-11-20T05:28:27.170Z,50.908012
2022-11-20T05:29:27.164Z,50.908127
2022-11-20T05:30:27.198Z,50.908146
2022-11-20T05:31:28.446Z,50.908176
2022-11-20T05:32:28.138Z,50.908188
2022-11-20T05:33:27.135Z,50.908123
2022-11-20T05:34:27.130Z,50.908112
2022-11-20T05:35:27.142Z,50.908100
2022-11-20T05:36:27.112Z,50.908016
2022-11-20T05:37:27.107Z,50.908085
2022-11-20T05:38:27.098Z,50.908108
2022-11-20T05:39:27.085Z,50.908089
2022-11-20T05:40:27.109Z,50.908092
2022-11-20T05:41:27.066Z,50.908081
2022-11-20T05:42:27.065Z,50.908066
2022-11-20T05:43:27.058Z,50.908142
2022-11-20T05:44:27.049Z,50.908085
2022-11-20T05:45:27.064Z,50.908077
2022-11-20T05:46:29.260Z,50.908096
2022-11-20T05:47:28.022Z,50.908054
2022-11-20T05:48:27.017Z,50.908077
2022-11-20T05:49:27.005Z,50.908051
2022-11-20T05:50:27.022Z,50.908100
2022-11-20T05:51:26.994Z,50.908070
2022-11-20T05:52:26.983Z,50.908077
2022-11-20T05:53:27.848Z,50.908127
2022-11-20T05:54:27.970Z,50.908100
2022-11-20T05:55:26.988Z,50.908043
2022-11-20T05:56:26.956Z,50.908161
2022-11-20T05:57:26.947Z,50.908142
2022-11-20T05:58:26.942Z,50.908081
2022-11-20T05:59:26.936Z,50.907990
2022-11-20T06:00:26.955Z,50.908096
2022-11-20T06:01:26.927Z,50.908157
2022-11-20T06:02:26.939Z,50.908142
2022-11-20T06:03:26.907Z,50.908134
2022-11-20T06:04:26.901Z,50.908115
2022-11-20T06:05:26.912Z,50.908100
2022-11-20T06:06:26.888Z,50.908112
2022-11-20T06:07:26.918Z,50.908108
2022-11-20T06:08:26.862Z,50.908112
2022-11-20T06:09:26.858Z,50.908104
2022-11-20T06:10:26.880Z,50.908142
2022-11-20T06:11:26.841Z,50.908127
2022-11-20T06:12:26.847Z,50.908100
2022-11-20T06:13:26.830Z,50.908134
2022-11-20T06:14:26.821Z,50.908138
2022-11-20T06:15:26.838Z,50.908127
2022-11-20T06:16:26.802Z,50.908157
2022-11-20T06:17:26.806Z,50.908146
2022-11-20T06:18:26.793Z,50.908131
2022-11-20T06:19:26.785Z,50.908134
2022-11-20T06:20:26.806Z,50.908134
2022-11-20T06:21:26.771Z,50.908096
2022-11-20T06:22:26.765Z,50.908134
2022-11-20T06:23:26.758Z,50.908123
2022-11-20T06:24:26.747Z,50.908131
2022-11-20T06:25:26.761Z,50.908287
2022-11-20T06:26:26.734Z,50.908184
2022-11-20T06:27:26.727Z,50.908089
2022-11-20T06:28:26.719Z,50.908035
2022-11-20T06:29:30.187Z,50.908161
2022-11-20T06:30:28.723Z,50.908211
2022-11-20T06:31:26.692Z,50.908127
2022-11-20T06:32:26.689Z,50.908169
2022-11-20T06:33:26.678Z,50.908108
2022-11-20T06:34:26.674Z,50.908100
2022-11-20T06:35:26.697Z,50.908127
2022-11-20T06:36:26.663Z,50.908131
2022-11-20T06:37:26.649Z,50.908142
2022-11-20T06:38:26.640Z,50.908115
2022-11-20T06:39:26.638Z,50.908142
2022-11-20T06:40:26.651Z,50.908142
2022-11-20T06:41:26.617Z,50.908115
2022-11-20T06:42:26.611Z,50.908062
2022-11-20T06:43:26.605Z,50.908150
2022-11-20T06:44:26.607Z,50.908138
2022-11-20T06:45:26.614Z,50.908134
2022-11-20T06:46:26.584Z,50.908104
2022-11-20T06:47:26.575Z,50.908115
2022-11-20T06:48:26.569Z,50.908119
2022-11-20T06:49:26.561Z,50.908104
2022-11-20T06:50:26.582Z,50.908127
2022-11-20T06:51:26.541Z,50.908112
2022-11-20T06:52:26.538Z,50.908108
2022-11-20T06:53:26.529Z,50.908119
2022-11-20T06:54:26.522Z,50.908142
2022-11-20T06:55:26.541Z,50.908157
2022-11-20T06:56:26.507Z,50.908131
2022-11-20T06:57:26.501Z,50.908138
2022-11-20T06:58:26.494Z,50.908127
2022-11-20T06:59:26.488Z,50.908138
2022-11-20T07:00:26.508Z,50.908222
2022-11-20T07:01:26.533Z,50.908131
2022-11-20T07:02:26.464Z,50.908134
2022-11-20T07:03:26.459Z,50.908115
2022-11-20T07:04:26.448Z,50.908134
2022-11-20T07:05:26.467Z,50.908112
2022-11-20T07:06:26.435Z,50.908112
2022-11-20T07:07:26.476Z,50.908142
2022-11-20T07:08:26.425Z,50.908150
2022-11-20T07:09:26.830Z,50.908146
2022-11-20T07:10:26.426Z,50.908184
2022-11-20T07:11:26.396Z,50.908291
2022-11-20T07:12:26.384Z,50.908218
2022-11-20T07:13:26.375Z,50.908134
2022-11-20T07:14:26.359Z,50.908150
2022-11-20T07:15:27.389Z,50.908115
2022-11-20T07:16:27.360Z,50.908165
2022-11-20T07:17:26.353Z,50.908115
2022-11-20T07:18:26.345Z,50.908104
2022-11-20T07:19:26.336Z,50.908146
2022-11-20T07:20:26.355Z,50.908169
2022-11-20T07:21:26.323Z,50.908138
2022-11-20T07:22:26.313Z,50.908165
2022-11-20T07:23:26.305Z,50.908127
2022-11-20T07:24:26.296Z,50.908115
2022-11-20T07:25:26.290Z,50.908112
2022-11-20T07:26:26.306Z,50.908165
2022-11-20T07:27:26.269Z,50.908070
2022-11-20T07:28:26.265Z,50.908180
2022-11-20T07:29:26.260Z,50.908154
2022-11-20T07:30:26.282Z,50.908154
2022-11-20T07:31:26.247Z,50.908127
2022-11-20T07:32:26.238Z,50.908176
2022-11-20T07:33:26.235Z,50.908127
2022-11-20T07:34:26.223Z,50.908138
2022-11-20T07:35:26.215Z,50.908131
2022-11-20T07:36:26.229Z,50.908329
2022-11-20T07:37:26.201Z,50.908150
2022-11-20T07:38:26.191Z,50.908142
2022-11-20T07:39:26.183Z,50.908142
2022-11-20T07:40:26.176Z,50.908165
2022-11-20T07:41:26.196Z,50.908150
2022-11-20T07:42:26.157Z,50.908188
2022-11-20T07:43:26.199Z,50.908173
2022-11-20T07:44:26.146Z,50.908134
2022-11-20T07:45:26.138Z,50.908161
2022-11-20T07:46:26.160Z,50.908131
2022-11-20T07:47:26.132Z,50.908199
2022-11-20T07:48:26.117Z,50.908150
2022-11-20T07:49:26.110Z,50.908180
2022-11-20T07:50:26.148Z,50.908154
2022-11-20T07:51:26.113Z,50.908146
2022-11-20T07:52:27.087Z,50.908070
2022-11-20T07:53:26.085Z,50.908134
2022-11-20T07:54:26.072Z,50.908138
2022-11-20T07:55:26.058Z,50.908112
2022-11-20T07:56:26.078Z,50.908108
2022-11-20T07:57:28.427Z,50.908058
2022-11-20T07:58:27.037Z,50.908028
2022-11-20T07:59:26.036Z,50.908150
2022-11-20T08:00:26.193Z,50.908134
2022-11-20T08:01:26.054Z,50.907986
2022-11-20T08:02:26.014Z,50.908009
2022-11-20T08:03:26.005Z,50.908020
2022-11-20T08:04:25.995Z,50.907913
2022-11-20T08:05:25.985Z,50.907867
2022-11-20T08:06:26.008Z,50.907917
2022-11-20T08:07:26.031Z,50.907883
2022-11-20T08:08:25.964Z,50.908020
2022-11-20T08:09:25.958Z,50.907948
2022-11-20T08:10:26.029Z,50.907936
2022-11-20T08:11:25.971Z,50.907925
2022-11-20T08:12:25.936Z,50.907925
2022-11-20T08:13:25.927Z,50.907925
2022-11-20T08:14:25.914Z,50.907772
2022-11-20T08:15:25.913Z,50.907883
2022-11-20T08:16:25.927Z,50.907890
2022-11-20T08:17:25.898Z,50.907890
2022-11-20T08:18:33.381Z,50.907993
2022-11-20T08:19:27.885Z,50.908138
2022-11-20T08:20:25.875Z,50.908138
2022-11-20T08:21:25.893Z,50.908138
2022-11-20T08:22:25.865Z,50.908138
2022-11-20T08:23:25.852Z,50.908138
2022-11-20T08:24:25.849Z,50.908138
2022-11-20T08:25:25.835Z,50.908138
2022-11-20T08:26:25.858Z,50.908138
2022-11-20T08:27:25.824Z,50.908138
2022-11-20T08:28:25.821Z,50.908138
2022-11-20T08:29:25.807Z,50.908138
2022-11-20T08:30:25.800Z,50.908138
2022-11-20T08:31:25.822Z,50.908138
2022-11-20T08:32:25.779Z,50.908138
2022-11-20T08:33:25.777Z,50.908138
2022-11-20T08:34:25.770Z,50.908138
2022-11-20T08:35:25.760Z,50.908138
2022-11-20T08:36:25.782Z,50.908138
2022-11-20T08:37:25.748Z,50.908138
2022-11-20T08:38:25.741Z,50.908138
2022-11-20T08:39:25.728Z,50.908138
2022-11-20T08:40:25.731Z,50.908138
2022-11-20T08:41:25.744Z,50.908138
2022-11-20T08:42:25.709Z,50.908138
2022-11-20T08:43:25.701Z,50.908138
2022-11-20T08:44:25.694Z,50.908138
2022-11-20T08:45:28.456Z,50.908138
2022-11-20T08:46:26.699Z,50.908138
2022-11-20T08:47:25.670Z,50.908138
2022-11-20T08:48:25.661Z,50.908138
2022-11-20T08:49:25.659Z,50.908138
2022-11-20T08:50:25.647Z,50.908138
2022-11-20T08:51:25.669Z,50.908138
2022-11-20T08:52:25.634Z,50.908138
2022-11-20T08:53:25.625Z,50.908138
2022-11-20T08:54:25.618Z,50.908081
2022-11-20T08:55:25.612Z,50.908169
2022-11-20T08:56:25.632Z,50.908134
2022-11-20T08:57:25.598Z,50.908058
2022-11-20T08:58:25.590Z,50.908092
2022-11-20T09:00:03.628Z,50.908089
2022-11-20T09:00:27.574Z,50.908085
2022-11-20T09:01:25.816Z,50.908035
2022-11-20T09:02:25.563Z,50.908173
2022-11-20T09:03:29.959Z,50.908180
2022-11-20T09:04:27.549Z,50.908184
2022-11-20T09:05:25.544Z,50.908150
2022-11-20T09:06:25.556Z,50.908112
2022-11-20T09:07:25.598Z,50.908146
2022-11-20T09:08:26.517Z,50.908157
2022-11-20T09:09:25.766Z,50.908184
2022-11-20T09:10:25.675Z,50.908115
2022-11-20T09:11:25.521Z,50.908100
2022-11-20T09:12:25.495Z,50.908112
2022-11-20T09:13:25.483Z,50.908123
2022-11-20T09:14:25.476Z,50.908104
2022-11-20T09:15:25.472Z,50.908131
2022-11-20T09:16:25.490Z,50.908218
2022-11-20T09:17:25.452Z,50.908138
2022-11-20T09:18:25.444Z,50.908134
2022-11-20T09:19:41.104Z,50.908104
2022-11-20T09:20:27.428Z,50.908138
2022-11-20T09:21:25.476Z,50.908154
2022-11-20T09:22:25.413Z,50.908127
2022-11-20T09:23:25.406Z,50.908161
2022-11-20T09:24:25.398Z,50.908119
2022-11-20T09:25:25.391Z,50.908146
2022-11-20T09:26:25.406Z,50.908142
2022-11-20T09:27:25.374Z,50.908134
2022-11-20T09:28:25.364Z,50.908127
2022-11-20T09:29:25.362Z,50.908165
2022-11-20T09:30:25.355Z,50.908028
2022-11-20T09:31:25.341Z,50.908081
2022-11-20T09:32:25.358Z,50.908154
2022-11-20T09:33:25.328Z,50.908150
2022-11-20T09:34:25.323Z,50.908131
2022-11-20T09:35:25.318Z,50.908127
2022-11-20T09:36:25.307Z,50.908092
2022-11-20T09:37:25.325Z,50.908096
2022-11-20T09:38:25.297Z,50.908131
2022-11-20T09:39:25.290Z,50.908089
2022-11-20T09:40:25.281Z,50.908089
2022-11-20T09:41:25.270Z,50.908100
2022-11-20T09:42:25.287Z,50.908108
2022-11-20T09:43:25.252Z,50.908070
2022-11-20T09:44:25.248Z,50.908096
2022-11-20T09:45:25.239Z,50.908142
2022-11-20T09:46:25.232Z,50.908089
2022-11-20T09:47:25.248Z,50.908100
2022-11-20T09:48:25.215Z,50.908112
2022-11-20T09:49:30.713Z,50.908092
2022-11-20T09:50:27.192Z,50.908115
2022-11-20T09:51:25.189Z,50.908096
2022-11-20T09:52:25.215Z,50.908073
2022-11-20T09:53:25.173Z,50.908089
2022-11-20T09:54:25.170Z,50.908054
2022-11-20T09:55:25.164Z,50.908104
2022-11-20T09:56:25.154Z,50.908096
2022-11-20T09:57:25.174Z,50.908112
2022-11-20T09:58:25.141Z,50.908173
2022-11-20T09:59:25.135Z,50.908077
2022-11-20T10:00:25.127Z,50.908089
2022-11-20T10:01:25.165Z,50.908119
2022-11-20T10:02:25.144Z,50.908028
2022-11-20T10:03:25.105Z,50.908115
2022-11-20T10:04:25.107Z,50.908157
2022-11-20T10:05:25.104Z,50.908161
2022-11-20T10:06:25.085Z,50.908115
2022-11-20T10:07:33.299Z,50.908108
2022-11-20T10:08:27.070Z,50.908112
2022-11-20T10:09:25.089Z,50.908104
2022-11-20T10:10:25.058Z,50.908081
2022-11-20T10:11:25.052Z,50.908119
2022-11-20T10:12:26.063Z,50.908115
2022-11-20T10:13:25.033Z,50.908066
2022-11-20T10:14:25.031Z,50.908085
2022-11-20T10:15:25.014Z,50.908058
2022-11-20T10:16:25.011Z,50.908104
2022-11-20T10:17:25.025Z,50.908077
2022-11-20T10:18:24.993Z,50.908131
2022-11-20T10:19:24.982Z,50.908066
2022-11-20T10:20:24.973Z,50.908081
2022-11-20T10:21:24.972Z,50.908115
2022-11-20T10:22:24.985Z,50.908104
2022-11-20T10:23:26.166Z,50.908085
2022-11-20T10:24:25.940Z,50.908096
2022-11-20T10:25:24.942Z,50.908039
2022-11-20T10:26:24.935Z,50.908051
2022-11-20T10:27:24.945Z,50.908047
2022-11-20T10:28:24.918Z,50.908104
2022-11-20T10:29:25.156Z,50.908119
2022-11-20T10:30:24.902Z,50.908089
2022-11-20T10:31:24.894Z,50.908024
2022-11-20T10:32:24.909Z,50.908043
2022-11-20T10:33:24.876Z,50.908058
2022-11-20T10:34:24.878Z,50.908054
2022-11-20T10:35:24.865Z,50.908089
2022-11-20T10:36:24.865Z,50.908043
2022-11-20T10:37:24.878Z,50.908085
2022-11-20T10:38:24.839Z,50.908054
2022-11-20T10:39:25.064Z,50.908089
2022-11-20T10:40:24.822Z,50.907986
2022-11-20T10:41:24.814Z,50.908058
2022-11-20T10:42:24.833Z,50.908134
2022-11-20T10:43:24.802Z,50.908112
2022-11-20T10:44:24.793Z,50.908070
2022-11-20T10:45:24.794Z,50.908031
2022-11-20T10:46:24.778Z,50.908100
2022-11-20T10:47:24.795Z,50.908306
2022-11-20T10:48:24.779Z,50.908257
2022-11-20T10:49:24.783Z,50.908138
2022-11-20T10:50:24.751Z,50.908138
2022-11-20T10:51:24.742Z,50.908081
2022-11-20T10:52:24.761Z,50.908237
2022-11-20T10:53:24.726Z,50.908203
2022-11-20T10:54:24.723Z,50.908302
2022-11-20T10:55:24.712Z,50.908257
2022-11-20T10:56:24.700Z,50.908245
2022-11-20T10:57:24.721Z,50.907986
2022-11-20T10:58:24.686Z,50.907970
2022-11-20T10:59:24.892Z,50.908062
2022-11-20T11:00:24.671Z,50.907917
2022-11-20T11:01:24.837Z,50.908134
2022-11-20T11:02:24.691Z,50.908104
2022-11-20T11:03:24.646Z,50.908123
2022-11-20T11:04:24.637Z,50.908154
2022-11-20T11:05:24.622Z,50.908268
2022-11-20T11:06:25.625Z,50.908268
2022-11-20T11:07:24.715Z,50.908283
2022-11-20T11:08:24.608Z,50.908321
2022-11-20T11:09:24.781Z,50.908298
2022-11-20T11:10:24.593Z,50.908134
2022-11-20T11:11:24.595Z,50.908142
2022-11-20T11:12:24.608Z,50.908337
2022-11-20T11:13:24.574Z,50.908760
2022-11-20T11:14:24.564Z,50.908447
2022-11-20T11:15:24.559Z,50.908005
2022-11-20T11:16:24.559Z,50.907993
2022-11-20T11:17:24.545Z,50.908131
2022-11-20T11:18:24.570Z,50.907974
2022-11-20T11:19:24.902Z,50.908089
2022-11-20T11:20:24.517Z,50.908184
2022-11-20T11:21:24.514Z,50.908218
2022-11-20T11:22:24.509Z,50.908230
2022-11-20T11:23:24.524Z,50.908272
2022-11-20T11:24:41.738Z,50.908138